createdAt,value
2022-08-19T00:08:42.838Z,100.00
2022-08-19T00:18:45.607Z,100.00
2022-08-19T00:28:48.771Z,100.00
2022-08-19T00:38:54.236Z,100.00
2022-08-19T00:48:58.884Z,100.00
2022-08-19T00:59:03.351Z,100.00
2022-08-19T01:09:07.050Z,100.00
2022-08-19T01:19:26.575Z,100.00
2022-08-19T01:29:30.481Z,100.00
2022-08-19T01:39:33.514Z,100.00
2022-08-19T01:49:36.435Z,100.00
2022-08-19T01:59:41.360Z,100.00
2022-08-19T02:09:43.802Z,100.00
2022-08-19T02:19:46.127Z,100.00
2022-08-19T02:29:51.022Z,100.00
2022-08-19T02:39:53.652Z,100.00
2022-08-19T02:49:56.115Z,100.00
2022-08-19T02:59:58.858Z,100.00
2022-08-19T03:10:01.184Z,100.00
2022-08-19T03:20:04.711Z,100.00
2022-08-19T03:30:08.168Z,100.00
2022-08-19T03:40:14.636Z,100.00
2022-08-19T03:50:20.784Z,100.00
2022-08-19T04:00:23.431Z,100.00
2022-08-19T04:10:26.354Z,100.00
2022-08-19T04:20:28.910Z,100.00
2022-08-19T04:30:31.476Z,100.00
2022-08-19T04:40:52.930Z,100.00
2022-08-19T04:51:00.542Z,100.00
2022-08-19T05:01:03.631Z,100.00
2022-08-19T05:11:16.717Z,100.00
2022-08-19T05:21:40.830Z,100.00
2022-08-19T05:31:45.487Z,100.00
2022-08-19T05:41:53.919Z,100.00
2022-08-19T05:51:59.753Z,100.00
2022-08-19T06:02:05.409Z,100.00
2022-08-19T06:12:10.840Z,100.00
2022-08-19T06:22:19.202Z,100.00
2022-08-19T06:32:26.616Z,100.00
2022-08-19T06:42:34.521Z,100.00
2022-08-19T06:52:42.604Z,100.00
2022-08-19T07:02:52.439Z,100.00
2022-08-19T07:13:00.526Z,100.00
2022-08-19T07:23:33.806Z,100.00
2022-08-19T07:34:43.246Z,100.00
2022-08-19T07:44:50.448Z,100.00
2022-08-19T07:54:57.747Z,100.00
2022-08-19T08:05:20.340Z,100.00
2022-08-19T08:15:35.681Z,100.00
2022-08-19T08:26:00.007Z,100.00
2022-08-19T08:36:07.376Z,100.00
2022-08-19T08:46:42.446Z,100.00
2022-08-19T08:56:54.841Z,100.00
2022-08-19T09:07:49.933Z,100.00
2022-08-19T09:17:58.479Z,100.00
2022-08-19T09:28:15.526Z,100.00
2022-08-19T09:38:43.624Z,100.00
2022-08-19T09:48:51.098Z,96.83
2022-08-19T09:59:06.397Z,94.20
2022-08-19T10:09:33.989Z,98.67
2022-08-19T10:19:52.685Z,100.00
2022-08-19T10:30:10.027Z,100.00
2022-08-19T10:40:17.408Z,100.00
2022-08-19T10:50:41.054Z,100.00
2022-08-19T11:01:04.312Z,100.00
2022-08-19T11:11:17.411Z,100.00
2022-08-19T11:21:28.400Z,98.30
2022-08-19T11:31:35.004Z,98.51
2022-08-19T11:41:39.664Z,97.22
2022-08-19T11:51:46.120Z,97.26
2022-08-19T12:01:54.531Z,97.56
2022-08-19T12:12:02.680Z,95.28
2022-08-19T12:22:09.242Z,90.21
2022-08-19T12:32:12.440Z,88.74
2022-08-19T12:42:21.204Z,82.94
2022-08-19T12:52:28.424Z,81.27
2022-08-19T13:02:38.470Z,82.74
2022-08-19T13:12:46.371Z,93.68
2022-08-19T13:22:52.769Z,98.26
2022-08-19T13:33:16.006Z,98.48
2022-08-19T13:43:24.078Z,98.24
2022-08-19T13:53:28.084Z,97.83
2022-08-19T14:03:33.168Z,97.93
2022-08-19T14:13:36.902Z,96.42
2022-08-19T14:23:40.598Z,95.59
2022-08-19T14:33:44.560Z,98.84
2022-08-19T14:43:49.664Z,100.00
2022-08-19T14:53:54.768Z,99.53
2022-08-19T15:03:58.409Z,99.46
2022-08-19T15:14:02.801Z,99.85
2022-08-19T15:24:06.725Z,100.00
2022-08-19T15:34:09.773Z,100.00
2022-08-19T15:44:19.064Z,100.00
2022-08-19T15:54:23.354Z,100.00
2022-08-19T16:04:45.440Z,100.00
2022-08-19T16:14:50.153Z,100.00
2022-08-19T16:24:53.244Z,100.00
2022-08-19T16:34:56.245Z,100.00
2022-08-19T16:45:01.285Z,100.00
2022-08-19T16:55:06.790Z,100.00
2022-08-19T17:05:11.517Z,100.00
2022-08-19T17:15:14.735Z,100.00
2022-08-19T17:25:19.005Z,100.00
2022-08-19T17:35:24.448Z,100.00
2022-08-19T17:45:28.737Z,100.00
2022-08-19T17:55:31.949Z,100.00
2022-08-19T18:05:41.553Z,100.00
2022-08-19T18:15:46.340Z,100.00
2022-08-19T18:25:50.224Z,100.00
2022-08-19T18:35:54.378Z,100.00
2022-08-19T18:46:16.091Z,100.00
2022-08-19T18:56:20.941Z,100.00
2022-08-19T19:06:30.968Z,100.00
2022-08-19T19:16:33.921Z,100.00
2022-08-19T19:26:37.566Z,100.00
2022-08-19T19:36:41.195Z,100.00
2022-08-19T19:46:45.392Z,100.00
2022-08-19T19:56:51.048Z,100.00
2022-08-19T20:06:54.034Z,100.00
2022-08-19T20:16:58.518Z,100.00
2022-08-19T20:27:03.151Z,100.00
2022-08-19T20:37:06.180Z,100.00
2022-08-19T20:47:09.018Z,100.00
2022-08-19T20:57:11.764Z,100.00
2022-08-19T21:07:15.878Z,100.00
2022-08-19T21:17:18.938Z,100.00
2022-08-19T21:27:23.079Z,100.00
2022-08-19T21:37:26.330Z,100.00
2022-08-19T21:47:29.167Z,100.00
2022-08-19T21:57:31.805Z,100.00
2022-08-19T22:07:34.373Z,100.00
2022-08-19T22:17:37.236Z,100.00
2022-08-19T22:27:40.723Z,100.00
2022-08-19T22:37:44.052Z,100.00
2022-08-19T22:47:47.040Z,100.00
2022-08-19T22:57:49.767Z,100.00
2022-08-19T23:07:53.046Z,100.00
2022-08-19T23:17:58.538Z,100.00
2022-08-19T23:28:20.323Z,100.00
2022-08-19T23:38:24.154Z,100.00
2022-08-19T23:48:28.330Z,100.00
2022-08-19T23:58:32.479Z,100.00
